Time;durP1;ratioP1;P1;durP2;ratioP2;P2;SDS_P1;SDS_P2;PMS_P1;PMS_P2;Temp;Humidity;BMP_temperature;BMP_pressure;BME280_temperature;BME280_humidity;BME280_pressure;Samples;Min_cycle;Max_cycle;Signal;HPM_P1;HPM_P2
2022/06/12 00:00:50;;;;;;;5.45;4.95;;;;;;;19.74;70.97;99209.09;5032887;27;103649;-60
2022/06/12 00:03:21;;;;;;;6.40;5.73;;;;;;;19.66;70.92;99207.22;5033400;27;102951;-60
2022/06/12 00:05:51;;;;;;;5.80;5.23;;;;;;;19.47;71.17;99200.22;5027783;27;103387;-60
2022/06/12 00:08:20;;;;;;;6.25;5.57;;;;;;;19.48;71.63;99203.75;5024638;27;103215;-60
2022/06/12 00:10:52;;;;;;;5.53;4.97;;;;;;;19.46;71.42;99201.19;5028340;27;102906;-61
2022/06/12 00:13:23;;;;;;;5.22;4.72;;;;;;;19.33;72.04;99206.09;5033254;27;102643;-60
2022/06/12 00:15:52;;;;;;;5.00;4.50;;;;;;;19.41;71.60;99210.69;5025022;27;103273;-60
2022/06/12 00:18:20;;;;;;;4.78;4.38;;;;;;;19.36;71.81;99202.25;5025510;27;103193;-60
2022/06/12 00:20:48;;;;;;;5.78;4.60;;;;;;;19.30;71.57;99211.75;5023242;27;103024;-60
2022/06/12 00:23:17;;;;;;;5.43;4.93;;;;;;;19.30;71.77;99201.03;5027288;27;104264;-60
2022/06/12 00:25:45;;;;;;;6.03;5.43;;;;;;;19.03;73.09;99198.44;5030575;27;103980;-60
2022/06/12 00:28:15;;;;;;;5.78;4.90;;;;;;;19.23;72.19;99205.31;5019230;27;104108;-60
2022/06/12 00:30:43;;;;;;;5.17;4.70;;;;;;;19.25;71.93;99203.34;5020203;27;102960;-60
2022/06/12 00:33:11;;;;;;;5.72;5.00;;;;;;;19.24;71.59;99206.16;5023402;27;102784;-60
2022/06/12 00:35:38;;;;;;;4.75;4.30;;;;;;;19.27;71.62;99209.38;5035818;27;104185;-61
2022/06/12 00:38:07;;;;;;;4.53;4.18;;;;;;;19.27;71.39;99198.66;5030788;27;104121;-60
2022/06/12 00:40:35;;;;;;;6.50;5.25;;;;;;;19.05;71.97;99201.78;5017302;27;102762;-60
2022/06/12 00:43:04;;;;;;;5.90;5.20;;;;;;;19.10;72.29;99203.03;5027789;27;102716;-61
2022/06/12 00:45:43;;;;;;;5.05;4.55;;;;;;;19.13;72.10;99199.19;5033860;27;104029;-60
2022/06/12 00:48:17;;;;;;;5.10;4.68;;;;;;;19.16;71.94;99198.03;5022935;27;103360;-60
2022/06/12 00:50:58;;;;;;;6.00;5.22;;;;;;;19.07;71.86;99203.31;5028804;27;102676;-60
2022/06/12 00:53:32;;;;;;;7.40;5.40;;;;;;;18.93;72.65;99203.84;5027180;27;102796;-60
2022/06/12 00:56:04;;;;;;;5.18;4.63;;;;;;;18.99;72.82;99202.41;5028239;27;103491;-60
2022/06/12 00:58:38;;;;;;;5.18;4.68;;;;;;;19.02;72.62;99197.59;5027263;27;104123;-60
2022/06/12 01:01:14;;;;;;;6.82;5.72;;;;;;;18.86;73.24;99207.28;5023879;27;102711;-60
2022/06/12 01:06:36;;;;;;;5.43;4.93;;;;;;;18.93;73.35;99200.31;5027724;27;103573;-60
2022/06/12 01:09:09;;;;;;;5.70;5.20;;;;;;;18.94;72.94;99194.84;5025558;27;103495;-59
2022/06/12 01:11:40;;;;;;;5.78;5.13;;;;;;;18.89;73.71;99191.75;5033719;27;102681;-60
2022/06/12 01:14:12;;;;;;;5.20;4.80;;;;;;;18.95;72.86;99191.13;5026270;27;102632;-60
2022/06/12 01:16:45;;;;;;;6.05;5.45;;;;;;;18.89;72.84;99189.06;5033284;27;103265;-60
2022/06/12 01:19:21;;;;;;;6.30;5.70;;;;;;;18.80;73.72;99191.81;5027725;27;104157;-61
2022/06/12 01:22:19;;;;;;;4.40;4.00;;;;;;;18.87;73.04;99195.56;5027038;27;102950;-60
2022/06/12 01:25:32;;;;;;;4.70;4.30;;;;;;;18.92;72.56;99195.94;5021335;27;103779;-60
2022/06/12 01:28:19;;;;;;;4.43;4.03;;;;;;;18.92;71.98;99196.78;4991091;27;103505;-60
2022/06/12 01:30:55;;;;;;;4.30;3.90;;;;;;;18.91;72.22;99196.97;5026289;27;104087;-60
2022/06/12 01:33:29;;;;;;;4.85;4.45;;;;;;;18.88;72.13;99192.75;5024018;27;102766;-60
2022/06/12 01:36:02;;;;;;;6.40;5.80;;;;;;;18.75;72.52;99192.25;5026799;27;103845;-60
2022/06/12 01:38:38;;;;;;;8.38;6.30;;;;;;;18.57;73.35;99198.56;5028972;27;103637;-60
2022/06/12 01:41:16;;;;;;;6.90;6.15;;;;;;;18.57;73.67;99196.75;5019391;27;104134;-60
2022/06/12 01:43:49;;;;;;;6.20;5.60;;;;;;;18.57;73.47;99201.25;5026886;27;102655;-60
2022/06/12 01:46:20;;;;;;;6.18;5.68;;;;;;;18.61;73.34;99194.63;5036096;27;102781;-60
2022/06/12 01:48:55;;;;;;;7.60;6.20;;;;;;;18.51;73.58;99194.66;5029623;27;103618;-60
2022/06/12 01:51:30;;;;;;;5.82;5.32;;;;;;;18.43;74.43;99194.53;5028173;27;103184;-60
2022/06/12 01:54:05;;;;;;;6.13;5.55;;;;;;;18.37;74.43;99187.94;5033117;27;102657;-60
2022/06/12 01:56:41;;;;;;;7.57;6.85;;;;;;;18.13;76.02;99193.00;5021560;27;103530;-60
2022/06/12 01:59:17;;;;;;;5.88;5.28;;;;;;;18.33;74.92;99191.06;5020081;27;104002;-67
2022/06/12 02:01:52;;;;;;;6.07;5.40;;;;;;;18.38;74.57;99186.13;5021553;27;103009;-67
2022/06/12 02:04:25;;;;;;;6.38;5.78;;;;;;;18.43;74.38;99184.69;5022717;27;102761;-67
2022/06/12 02:07:10;;;;;;;5.00;4.50;;;;;;;18.48;73.19;99186.94;5024486;27;102677;-67
2022/06/12 02:09:44;;;;;;;6.15;5.55;;;;;;;18.37;74.11;99187.09;5029503;27;103271;-67
2022/06/12 02:15:07;;;;;;;6.68;5.97;;;;;;;18.25;74.14;99188.28;5027396;27;102718;-67
2022/06/12 02:17:42;;;;;;;7.45;6.75;;;;;;;17.90;76.57;99184.47;5029921;27;102649;-67
2022/06/12 02:20:13;;;;;;;8.30;6.82;;;;;;;17.82;77.01;99186.19;5035208;27;104112;-67
2022/06/12 02:22:44;;;;;;;7.10;6.43;;;;;;;17.89;76.42;99182.78;5033336;27;103033;-67
2022/06/12 02:25:16;;;;;;;6.93;6.32;;;;;;;17.84;76.67;99181.53;5024739;27;103076;-67
2022/06/12 02:27:48;;;;;;;7.03;6.30;;;;;;;17.89;76.63;99185.47;5020473;27;102560;-67
2022/06/12 02:30:20;;;;;;;7.68;6.90;;;;;;;17.74;77.65;99189.56;5033063;27;103722;-66
2022/06/12 02:32:56;;;;;;;6.88;6.18;;;;;;;17.81;77.29;99185.34;5025274;27;103184;-67
2022/06/12 02:35:30;;;;;;;6.93;6.32;;;;;;;17.87;77.01;99190.13;5024092;27;102679;-67
2022/06/12 02:38:02;;;;;;;7.18;6.47;;;;;;;17.91;76.22;99188.81;5033150;27;103490;-67
2022/06/12 02:40:34;;;;;;;5.57;5.07;;;;;;;17.94;76.19;99187.69;5029094;27;104078;-67
2022/06/12 02:43:09;;;;;;;6.63;5.77;;;;;;;18.01;75.34;99190.63;5035294;27;103225;-66
2022/06/12 02:45:43;;;;;;;5.15;4.75;;;;;;;18.01;75.34;99187.94;5031075;27;102843;-67
2022/06/12 02:48:13;;;;;;;6.15;5.60;;;;;;;17.98;75.59;99194.44;5032461;27;102657;-67
2022/06/12 02:50:49;;;;;;;4.80;4.40;;;;;;;18.05;74.56;99184.00;5025416;27;103281;-67
2022/06/12 02:53:24;;;;;;;5.10;4.70;;;;;;;18.00;74.85;99189.78;5022592;27;103845;-67
2022/06/12 02:55:59;;;;;;;7.53;6.57;;;;;;;17.84;75.63;99189.56;5025281;27;102701;-66
2022/06/12 02:58:34;;;;;;;6.90;6.30;;;;;;;17.65;77.21;99193.13;5032439;27;102966;-66
2022/06/12 03:01:06;;;;;;;6.70;6.10;;;;;;;17.42;78.27;99188.19;5028359;27;103290;-66
2022/06/12 03:03:44;;;;;;;6.70;6.00;;;;;;;17.41;79.07;99195.34;5028654;27;103198;-67
2022/06/12 03:06:14;;;;;;;6.60;6.00;;;;;;;17.46;78.86;99192.28;5033790;27;102750;-67
2022/06/12 03:08:47;;;;;;;6.07;5.47;;;;;;;17.55;78.63;99191.44;5037199;27;103902;-67
2022/06/12 03:11:20;;;;;;;7.13;6.45;;;;;;;17.51;79.13;99190.88;5033491;27;103863;-66
2022/06/12 03:13:50;;;;;;;6.22;5.65;;;;;;;17.64;78.65;99188.75;5025059;27;102978;-66
2022/06/12 03:16:23;;;;;;;7.20;6.57;;;;;;;17.62;78.42;99188.06;4996038;27;103744;-66
2022/06/12 03:18:56;;;;;;;6.67;6.07;;;;;;;17.39;80.82;99186.66;5024217;27;102918;-67
2022/06/12 03:21:38;;;;;;;6.33;5.70;;;;;;;17.50;79.45;99194.50;5020989;27;103142;-66
2022/06/12 03:24:25;;;;;;;6.90;6.20;;;;;;;17.52;79.02;99192.53;5001767;27;103236;-65
2022/06/12 03:27:06;;;;;;;7.30;6.67;;;;;;;17.28;81.01;99194.81;5029985;27;103616;-66
2022/06/12 03:29:46;;;;;;;8.25;7.35;;;;;;;16.97;83.11;99195.91;5027393;27;102708;-66
2022/06/12 03:32:22;;;;;;;4.57;4.18;;;;;;;17.41;80.73;99187.34;5022865;27;103209;-66
2022/06/12 03:35:03;;;;;;;5.20;4.70;;;;;;;17.55;80.28;99194.94;5037070;27;103208;-66
2022/06/12 03:37:49;;;;;;;5.47;4.97;;;;;;;17.59;79.14;99193.69;5040163;27;103090;-67
2022/06/12 03:40:25;;;;;;;5.32;4.93;;;;;;;17.68;78.76;99187.50;5030922;27;103975;-67
2022/06/12 03:42:57;;;;;;;5.90;5.33;;;;;;;17.73;78.06;99198.59;5028335;27;104374;-66
2022/06/12 03:45:34;;;;;;;6.50;5.90;;;;;;;17.67;78.65;99190.28;5030602;27;104343;-67
2022/06/12 03:48:13;;;;;;;6.00;5.40;;;;;;;17.73;78.58;99195.06;5020959;27;103085;-66
2022/06/12 03:50:47;;;;;;;6.38;5.80;;;;;;;17.70;78.71;99195.34;5022363;27;103931;-66
2022/06/12 03:53:22;;;;;;;6.00;4.60;;;;;;;17.84;77.66;99203.75;5022803;27;103703;-66
2022/06/12 03:58:48;;;;;;;4.30;4.00;;;;;;;17.94;77.44;99204.56;5024240;27;102822;-67
2022/06/12 04:01:20;;;;;;;4.72;4.30;;;;;;;17.95;77.04;99198.25;5031289;27;104155;-67
2022/06/12 04:03:50;;;;;;;5.22;4.72;;;;;;;18.07;77.21;99193.56;5025594;27;104010;-67
2022/06/12 04:06:22;;;;;;;5.27;4.77;;;;;;;18.12;77.41;99201.13;5024206;27;103490;-67
2022/06/12 04:08:54;;;;;;;4.75;4.35;;;;;;;18.14;77.55;99188.47;5023110;27;102736;-68
2022/06/12 04:11:26;;;;;;;5.18;4.68;;;;;;;18.10;78.23;99197.78;5031892;27;103469;-67
2022/06/12 04:13:56;;;;;;;6.13;5.40;;;;;;;18.20;78.01;99193.22;4999064;27;104660;-66
2022/06/12 04:16:29;;;;;;;4.30;4.00;;;;;;;18.33;76.93;99196.44;5028604;27;103191;-66
2022/06/12 04:18:58;;;;;;;5.00;4.60;;;;;;;18.38;77.04;99199.50;4993449;27;102633;-68
2022/06/12 04:21:35;;;;;;;4.78;4.38;;;;;;;18.49;76.01;99199.31;5027486;27;102635;-68
2022/06/12 04:24:10;;;;;;;5.40;4.88;;;;;;;18.49;76.16;99199.31;5028186;27;104163;-68
2022/06/12 04:26:40;;;;;;;6.20;5.53;;;;;;;18.52;76.48;99199.88;5031410;27;103207;-68
2022/06/12 04:29:21;;;;;;;5.28;4.38;;;;;;;18.62;76.40;99202.50;5023742;27;102677;-68
2022/06/12 04:31:51;;;;;;;4.80;4.40;;;;;;;18.77;75.19;99192.97;5026584;27;102899;-68
2022/06/12 04:34:22;;;;;;;4.45;4.05;;;;;;;18.87;74.94;99199.09;4991347;27;103326;-68
2022/06/12 04:36:55;;;;;;;4.80;4.40;;;;;;;18.93;74.67;99195.81;5022897;27;103528;-68
2022/06/12 04:39:27;;;;;;;7.10;5.70;;;;;;;18.78;75.15;99189.28;5031394;27;102926;-68
2022/06/12 04:41:56;;;;;;;4.60;4.20;;;;;;;18.92;74.88;99190.59;5027213;27;102746;-68
2022/06/12 04:44:25;;;;;;;4.80;4.40;;;;;;;19.04;74.66;99206.31;5030836;27;103255;-68
2022/06/12 04:46:55;;;;;;;5.43;4.83;;;;;;;19.08;74.15;99196.97;5025837;27;103206;-68
2022/06/12 04:49:25;;;;;;;6.57;5.97;;;;;;;19.11;74.72;99202.00;5018389;27;102665;-68
2022/06/12 04:51:58;;;;;;;5.97;5.47;;;;;;;19.16;74.48;99200.72;5023324;27;102649;-68
2022/06/12 04:54:28;;;;;;;4.90;4.45;;;;;;;19.32;73.81;99219.63;5020716;27;103263;-68
2022/06/12 04:56:56;;;;;;;3.80;3.50;;;;;;;19.41;73.26;99210.69;5023618;27;103197;-68
2022/06/12 04:59:28;;;;;;;4.27;3.87;;;;;;;19.40;73.57;99206.31;5030188;27;102751;-68
2022/06/12 05:01:56;;;;;;;4.17;3.80;;;;;;;19.53;72.77;99213.00;5021990;27;102959;-68
2022/06/12 05:04:26;;;;;;;5.15;4.65;;;;;;;19.58;72.78;99220.56;5030134;27;103700;-67
2022/06/12 05:06:56;;;;;;;4.82;4.40;;;;;;;19.64;72.76;99219.94;5026654;27;103132;-68
2022/06/12 05:09:27;;;;;;;4.35;4.03;;;;;;;19.72;72.83;99217.31;5023417;27;103018;-68
2022/06/12 05:11:55;;;;;;;4.63;4.32;;;;;;;19.80;72.50;99220.06;5032373;27;104169;-69
2022/06/12 05:14:23;;;;;;;4.70;4.30;;;;;;;19.85;72.24;99216.91;5028569;27;104553;-68
2022/06/12 05:16:54;;;;;;;4.63;4.22;;;;;;;19.95;72.16;99221.19;5032416;27;103247;-68
2022/06/12 05:19:25;;;;;;;4.18;3.85;;;;;;;20.05;71.44;99216.53;5033091;27;102738;-69
2022/06/12 05:21:53;;;;;;;4.27;3.87;;;;;;;20.17;70.90;99217.97;5029984;27;104326;-68
2022/06/12 05:24:23;;;;;;;4.45;4.15;;;;;;;20.19;70.85;99221.31;5024105;27;103119;-69
2022/06/12 05:26:53;;;;;;;5.13;4.70;;;;;;;20.26;70.24;99226.09;5021915;27;103026;-68
2022/06/12 05:29:24;;;;;;;4.20;3.90;;;;;;;20.33;69.99;99221.75;5021232;27;102600;-68
2022/06/12 05:31:53;;;;;;;4.53;4.13;;;;;;;20.37;69.73;99228.50;5030987;27;103756;-68
2022/06/12 05:34:22;;;;;;;4.85;4.38;;;;;;;20.43;70.04;99219.81;5026573;27;103276;-68
2022/06/12 05:36:50;;;;;;;4.10;3.70;;;;;;;20.56;70.16;99214.81;5019970;27;104490;-68
2022/06/12 05:39:18;;;;;;;4.47;4.10;;;;;;;20.63;69.78;99218.56;5028056;27;102632;-68
2022/06/12 05:41:49;;;;;;;4.68;4.25;;;;;;;20.64;69.03;99209.47;5023237;27;103965;-68
2022/06/12 05:44:18;;;;;;;4.97;4.57;;;;;;;20.63;69.74;99213.19;5032473;27;103246;-68
2022/06/12 05:46:47;;;;;;;5.47;4.97;;;;;;;20.74;69.16;99215.56;5007472;27;103312;-64
2022/06/12 05:49:16;;;;;;;5.07;4.50;;;;;;;20.85;69.63;99206.38;5021370;27;102779;-68
2022/06/12 05:51:44;;;;;;;5.25;4.78;;;;;;;20.91;69.55;99211.94;5029496;27;104041;-69
2022/06/12 05:54:12;;;;;;;5.97;5.38;;;;;;;20.92;69.78;99202.84;5026656;27;103277;-69
2022/06/12 05:56:40;;;;;;;4.70;4.25;;;;;;;21.10;69.02;99205.47;4999123;27;104741;-68
2022/06/12 05:59:10;;;;;;;4.78;4.38;;;;;;;21.19;68.94;99205.28;5036247;27;102583;-69
2022/06/12 06:01:39;;;;;;;4.30;4.00;;;;;;;21.20;68.84;99206.97;5031866;27;104535;-65
2022/06/12 06:04:08;;;;;;;6.47;5.78;;;;;;;20.32;71.02;99220.09;5024403;27;104017;-65
2022/06/12 06:06:41;;;;;;;4.80;4.40;;;;;;;21.05;69.62;99213.97;5025382;27;103354;-61
2022/06/12 06:09:11;;;;;;;5.15;4.75;;;;;;;21.20;68.53;99212.34;5029691;27;102661;-61
2022/06/12 06:11:40;;;;;;;4.97;4.47;;;;;;;21.17;69.24;99209.16;5031725;27;103879;-61
2022/06/12 06:14:08;;;;;;;4.50;4.20;;;;;;;21.06;69.43;99207.59;5025701;27;103249;-61
2022/06/12 06:16:39;;;;;;;6.93;5.47;;;;;;;21.41;68.78;99209.19;5025120;27;103209;-61
2022/06/12 06:19:07;;;;;;;4.73;4.33;;;;;;;21.71;67.82;99213.03;5032124;27;103919;-61
2022/06/12 06:21:37;;;;;;;6.97;5.80;;;;;;;20.97;68.47;99205.88;5035023;27;102881;-61
2022/06/12 06:24:05;;;;;;;5.30;4.30;;;;;;;21.57;68.13;99213.72;5032270;27;104217;-61
2022/06/12 06:26:33;;;;;;;6.07;5.30;;;;;;;21.05;68.91;99205.09;5025239;27;103217;-61
2022/06/12 06:29:01;;;;;;;5.93;5.32;;;;;;;20.91;69.60;99211.94;5027176;27;102958;-61
2022/06/12 06:31:30;;;;;;;5.70;5.10;;;;;;;21.15;69.38;99209.31;5031561;27;102729;-61
2022/06/12 06:34:00;;;;;;;4.13;3.75;;;;;;;21.65;68.32;99213.72;5034494;27;104223;-61
2022/06/12 06:36:28;;;;;;;4.90;4.50;;;;;;;22.10;66.57;99211.34;5022631;27;102986;-61
2022/06/12 06:38:57;;;;;;;4.43;3.97;;;;;;;22.36;65.61;99211.13;5022833;27;103570;-61
2022/06/12 06:41:26;;;;;;;5.47;4.50;;;;;;;22.26;64.68;99210.47;5033178;27;103358;-61
2022/06/12 06:46:41;;;;;;;5.35;4.10;;;;;;;22.77;63.48;99209.09;5036306;27;103255;-61
2022/06/12 06:49:16;;;;;;;4.70;4.13;;;;;;;22.85;64.09;99222.56;4981763;27;105296;-61
2022/06/12 06:51:45;;;;;;;4.43;4.03;;;;;;;23.00;62.93;99215.38;5028133;27;102809;-61
2022/06/12 06:54:13;;;;;;;4.33;3.93;;;;;;;23.12;62.73;99213.13;5029041;27;103885;-61
2022/06/12 06:56:40;;;;;;;4.30;3.80;;;;;;;23.25;63.46;99214.22;5034069;27;103220;-61
2022/06/12 06:59:08;;;;;;;3.58;3.28;;;;;;;23.50;62.66;99212.22;5021117;27;102974;-61
2022/06/12 07:01:37;;;;;;;5.50;4.60;;;;;;;22.80;63.72;99224.91;5026473;27;102815;-63
2022/06/12 07:04:08;;;;;;;4.43;3.47;;;;;;;23.48;61.65;99223.19;5033619;27;104270;-61
2022/06/12 07:06:37;;;;;;;3.70;3.40;;;;;;;24.03;60.03;99216.63;5023241;27;103272;-62
2022/06/12 07:09:06;;;;;;;5.20;4.45;;;;;;;23.65;62.66;99222.03;5030125;27;102816;-61
2022/06/12 07:11:34;;;;;;;5.65;4.50;;;;;;;23.21;61.54;99217.47;5034604;27;102843;-61
2022/06/12 07:14:04;;;;;;;4.07;3.67;;;;;;;23.66;60.70;99223.69;5027097;27;103993;-62
2022/06/12 07:16:34;;;;;;;4.07;3.67;;;;;;;24.03;60.14;99219.31;5040136;27;103144;-61
2022/06/12 07:19:05;;;;;;;5.25;4.57;;;;;;;24.17;60.35;99215.84;5034203;27;103992;-61
2022/06/12 07:21:33;;;;;;;5.20;3.97;;;;;;;24.20;59.75;99212.78;5032062;27;102774;-62
2022/06/12 07:24:02;;;;;;;4.45;4.10;;;;;;;23.69;60.78;99210.91;5035267;27;103254;-61
2022/06/12 07:26:33;;;;;;;4.40;3.92;;;;;;;24.26;60.22;99213.88;5027056;27;103810;-62
2022/06/12 07:29:05;;;;;;;5.13;3.72;;;;;;;24.67;60.11;99212.41;5025928;27;102630;-59
2022/06/12 07:31:37;;;;;;;3.60;3.30;;;;;;;25.02;57.75;99199.97;5026582;27;102724;-59
2022/06/12 07:34:06;;;;;;;4.78;4.28;;;;;;;24.35;59.16;99208.22;5031245;27;103814;-59
2022/06/12 07:36:44;;;;;;;4.30;3.88;;;;;;;25.00;57.56;99204.72;5034969;27;104275;-62
2022/06/12 07:39:17;;;;;;;4.07;3.67;;;;;;;25.46;57.59;99205.22;5026605;27;102607;-62
2022/06/12 07:41:47;;;;;;;5.10;3.42;;;;;;;26.09;55.34;99204.31;5026533;27;102788;-59
2022/06/12 07:44:19;;;;;;;6.07;4.20;;;;;;;25.97;55.22;99200.47;5024010;27;103083;-68
2022/06/12 07:46:51;;;;;;;3.40;3.10;;;;;;;26.66;55.02;99191.38;5028392;27;103213;-69
2022/06/12 07:49:19;;;;;;;4.88;3.55;;;;;;;26.59;52.77;99198.59;5026193;27;102546;-68
2022/06/12 07:51:49;;;;;;;3.67;3.00;;;;;;;26.95;50.95;99191.06;5026053;27;103074;-69
2022/06/12 07:54:19;;;;;;;4.38;3.50;;;;;;;26.83;50.48;99187.28;5030884;27;103010;-69
2022/06/12 07:56:48;;;;;;;4.18;3.40;;;;;;;26.60;52.41;99194.03;5037875;27;103461;-69
2022/06/12 07:59:17;;;;;;;5.03;3.90;;;;;;;26.78;51.45;99187.03;5025117;27;102811;-69
2022/06/12 08:01:45;;;;;;;3.67;2.90;;;;;;;27.55;51.06;99182.06;5027913;27;102721;-69
2022/06/12 08:04:14;;;;;;;5.07;3.70;;;;;;;27.66;49.64;99188.75;5030422;27;103745;-69
2022/06/12 08:06:42;;;;;;;4.75;3.58;;;;;;;27.79;49.18;99182.50;5035598;27;103868;-69
2022/06/12 08:09:14;;;;;;;4.72;3.85;;;;;;;28.13;49.65;99172.22;5028541;27;102832;-70
2022/06/12 08:11:46;;;;;;;4.10;3.70;;;;;;;28.46;50.53;99179.47;5026819;27;104013;-69
2022/06/12 08:14:16;;;;;;;6.10;4.70;;;;;;;26.02;54.30;99177.19;5037839;27;104652;-70
2022/06/12 08:16:45;;;;;;;4.80;4.30;;;;;;;27.38;52.66;99179.91;5032190;27;103141;-70
2022/06/12 08:22:01;;;;;;;5.47;4.00;;;;;;;28.73;49.12;99183.81;5024356;27;103652;-70
2022/06/12 08:24:29;;;;;;;3.67;3.37;;;;;;;29.14;48.28;99177.94;5038529;27;103973;-70
2022/06/12 08:26:59;;;;;;;4.38;3.70;;;;;;;29.07;46.41;99172.56;5025180;27;103665;-69
2022/06/12 08:29:27;;;;;;;4.50;3.40;;;;;;;29.83;48.12;99173.31;5023172;27;102869;-70
2022/06/12 08:31:59;;;;;;;4.88;3.58;;;;;;;29.65;47.47;99175.09;5025666;27;103049;-70
2022/06/12 08:34:31;;;;;;;3.88;3.35;;;;;;;30.57;45.77;99174.28;5025691;27;104126;-69
2022/06/12 08:37:10;;;;;;;4.00;3.60;;;;;;;30.49;43.89;99169.09;5032736;27;103239;-70
2022/06/12 08:39:38;;;;;;;5.23;3.70;;;;;;;29.71;45.72;99166.06;5023801;27;103128;-70
2022/06/12 08:42:15;;;;;;;5.27;3.80;;;;;;;30.53;44.57;99160.25;5037009;27;102899;-70
2022/06/12 08:44:50;;;;;;;4.85;3.72;;;;;;;31.11;44.62;99155.13;5031681;27;103312;-69
2022/06/12 08:47:26;;;;;;;4.77;3.70;;;;;;;31.25;47.92;99163.94;5024408;27;104096;-70
2022/06/12 08:50:01;;;;;;;5.83;3.67;;;;;;;31.66;44.99;99154.94;5034765;27;102894;-70
2022/06/12 08:52:34;;;;;;;5.50;4.77;;;;;;;29.15;46.35;99158.69;5030495;27;102758;-70
2022/06/12 08:55:09;;;;;;;5.38;4.15;;;;;;;30.89;45.96;99157.50;5027261;27;104006;-61
2022/06/12 08:57:43;;;;;;;4.03;3.17;;;;;;;31.25;44.27;99155.75;5023312;27;103338;-61
2022/06/12 09:00:15;;;;;;;6.13;4.13;;;;;;;30.03;46.06;99150.50;5027933;27;103053;-63
2022/06/12 09:02:45;;;;;;;5.40;3.92;;;;;;;30.18;47.30;99159.97;5039068;27;103220;-62
2022/06/12 09:05:16;;;;;;;5.25;4.30;;;;;;;31.52;43.27;99141.47;5022131;27;104155;-61
2022/06/12 09:07:50;;;;;;;4.65;3.40;;;;;;;32.26;42.99;99140.00;5025909;27;103214;-63
2022/06/12 09:10:29;;;;;;;4.03;3.50;;;;;;;32.80;42.71;99137.88;5024477;27;102718;-61
2022/06/12 09:13:10;;;;;;;3.90;3.00;;;;;;;33.71;39.68;99129.47;5038368;27;102651;-61
2022/06/12 09:15:45;;;;;;;4.10;3.00;;;;;;;33.65;39.82;99125.81;4986409;27;104603;-61
2022/06/12 09:18:24;;;;;;;3.67;3.10;;;;;;;32.28;41.08;99135.16;5027205;27;103168;-61
2022/06/12 09:21:03;;;;;;;3.70;3.03;;;;;;;32.88;38.27;99132.00;5028419;27;103097;-61
2022/06/12 09:23:40;;;;;;;4.18;3.15;;;;;;;32.96;41.20;99126.16;5020870;27;102976;-61
2022/06/12 09:26:17;;;;;;;4.77;2.80;;;;;;;33.37;40.31;99127.75;5031988;27;103987;-61
2022/06/12 09:28:53;;;;;;;4.00;2.90;;;;;;;33.18;38.14;99124.44;5029282;27;104211;-61
2022/06/12 09:31:31;;;;;;;3.60;2.80;;;;;;;34.19;38.31;99120.63;5024798;27;102797;-61
2022/06/12 09:34:10;;;;;;;4.55;2.55;;;;;;;34.13;37.31;99127.13;5029244;27;104726;-62
2022/06/12 09:36:56;;;;;;;3.55;2.80;;;;;;;33.99;37.96;99128.53;5010421;27;103223;-61
2022/06/12 09:39:44;;;;;;;3.63;2.70;;;;;;;34.55;36.38;99119.19;5013929;27;103168;-61
2022/06/12 09:42:19;;;;;;;3.53;2.93;;;;;;;33.48;39.08;99116.75;5029319;27;102780;-61
2022/06/12 09:44:52;;;;;;;4.18;3.15;;;;;;;32.91;37.16;99113.22;5013578;27;103999;-61
2022/06/12 09:47:35;;;;;;;3.53;2.83;;;;;;;34.25;35.74;99112.22;5019504;27;103980;-61
2022/06/12 09:50:22;;;;;;;3.90;2.53;;;;;;;34.73;35.69;99116.97;5008797;27;108504;-62
2022/06/12 09:53:04;;;;;;;5.35;3.47;;;;;;;33.66;37.33;99108.28;5028729;27;102719;-62
2022/06/12 09:55:37;;;;;;;3.35;2.53;;;;;;;34.42;35.07;99103.09;5028064;27;102609;-62
2022/06/12 09:58:12;;;;;;;4.70;2.97;;;;;;;33.29;37.45;99098.06;5014262;27;103233;-62
2022/06/12 10:00:46;;;;;;;3.53;2.70;;;;;;;31.87;38.59;99106.03;5019426;27;103289;-62
2022/06/12 10:03:29;;;;;;;5.28;2.72;;;;;;;33.74;37.40;99091.44;5025206;27;103369;-61
2022/06/12 10:06:03;;;;;;;2.87;2.63;;;;;;;34.03;35.95;99088.56;5013486;27;103082;-62
2022/06/12 10:08:36;;;;;;;2.67;2.40;;;;;;;33.64;36.13;99085.81;5013859;27;103293;-63
2022/06/12 10:11:11;;;;;;;3.60;2.45;;;;;;;33.86;36.62;99082.28;5023280;27;103529;-62
2022/06/12 10:13:52;;;;;;;3.45;2.92;;;;;;;31.91;38.41;99092.72;5024952;27;102690;-62
2022/06/12 10:16:30;;;;;;;3.65;2.50;;;;;;;31.02;39.19;99096.47;5026706;27;102702;-62
2022/06/12 10:19:21;;;;;;;4.22;2.40;;;;;;;31.56;38.08;99087.25;5020681;27;104033;-62
2022/06/12 10:21:53;;;;;;;2.53;2.00;;;;;;;33.38;36.25;99070.00;5021586;27;103180;-63
2022/06/12 10:24:22;;;;;;;3.08;2.47;;;;;;;33.65;39.30;99065.56;5020754;27;103054;-70
2022/06/12 10:26:58;;;;;;;3.90;2.72;;;;;;;33.36;36.06;99065.84;5022009;27;103843;-70
2022/06/12 10:29:27;;;;;;;3.00;2.40;;;;;;;32.68;36.39;99075.84;5022560;27;104280;-62
2022/06/12 10:32:01;;;;;;;3.97;2.45;;;;;;;30.78;38.66;99068.28;5020758;27;103166;-62
2022/06/12 10:34:32;;;;;;;4.00;2.33;;;;;;;31.71;39.52;99073.97;5022863;27;103129;-62
2022/06/12 10:37:10;;;;;;;4.57;2.42;;;;;;;30.84;38.76;99066.50;5008262;27;103248;-62
2022/06/12 10:39:40;;;;;;;2.88;2.10;;;;;;;31.49;38.34;99071.00;5024798;27;104145;-62
2022/06/12 10:42:29;;;;;;;2.17;1.98;;;;;;;32.59;37.73;99063.63;5017270;27;103064;-62
2022/06/12 10:44:59;;;;;;;3.20;2.10;;;;;;;33.15;35.47;99059.22;5022662;27;103017;-63
2022/06/12 10:47:31;;;;;;;2.45;2.10;;;;;;;33.22;36.88;99054.41;5036540;27;104005;-70
2022/06/12 10:50:19;;;;;;;5.22;2.40;;;;;;;32.09;35.88;99054.34;5027752;27;103276;-70
2022/06/12 10:53:00;;;;;;;3.67;2.30;;;;;;;32.14;36.23;99057.22;5019709;27;103216;-63
2022/06/12 10:55:43;;;;;;;4.97;2.08;;;;;;;30.95;36.73;99052.13;5016439;27;102943;-70
2022/06/12 10:58:53;;;;;;;3.22;1.88;;;;;;;32.16;36.33;99038.66;5018452;27;103933;-63
2022/06/12 11:01:33;;;;;;;2.42;1.40;;;;;;;31.42;34.11;99044.81;4976755;27;103316;-70
2022/06/12 11:04:12;;;;;;;2.88;1.40;;;;;;;32.02;34.68;99037.25;5029211;27;103041;-71
2022/06/12 11:06:52;;;;;;;2.53;1.83;;;;;;;31.52;35.93;99037.72;5006155;27;103406;-68
2022/06/12 11:09:26;;;;;;;3.50;2.00;;;;;;;30.43;37.58;99035.41;5009477;27;104089;-70
2022/06/12 11:12:04;;;;;;;3.20;1.90;;;;;;;31.12;35.72;99028.56;5025966;27;104417;-70
2022/06/12 11:14:43;;;;;;;3.53;2.05;;;;;;;32.02;34.26;99031.81;5019841;27;103176;-71
2022/06/12 11:17:26;;;;;;;2.53;1.70;;;;;;;32.55;33.59;99018.72;5022267;27;102798;-71
2022/06/12 11:20:13;;;;;;;3.20;1.75;;;;;;;33.58;33.49;99026.53;5027336;27;102973;-71
2022/06/12 11:22:50;;;;;;;2.40;1.60;;;;;;;34.48;33.32;99015.13;5029940;27;104197;-71
2022/06/12 11:25:39;;;;;;;3.67;2.03;;;;;;;31.04;35.90;99017.97;5028833;27;103523;-69
2022/06/12 11:28:25;;;;;;;3.25;1.85;;;;;;;33.80;34.50;99002.75;5029719;27;104335;-71
2022/06/12 11:31:01;;;;;;;3.13;1.88;;;;;;;34.03;34.35;99000.84;5027906;27;103885;-63
2022/06/12 11:33:46;;;;;;;3.63;2.00;;;;;;;32.91;35.29;99000.19;5030869;27;103066;-71
2022/06/12 11:36:25;;;;;;;3.93;2.13;;;;;;;32.56;34.66;98998.47;5032153;27;103819;-70
2022/06/12 11:39:14;;;;;;;4.40;2.35;;;;;;;31.97;37.47;99001.63;5023327;27;103038;-71
2022/06/12 11:41:55;;;;;;;3.13;2.67;;;;;;;34.04;34.96;98997.03;5024458;27;103902;-71
2022/06/12 11:44:36;;;;;;;2.93;2.13;;;;;;;31.92;36.75;98998.75;5033143;27;103282;-63
2022/06/12 11:47:16;;;;;;;3.43;2.40;;;;;;;31.06;38.96;98995.91;5032910;27;103237;-62
2022/06/12 11:49:56;;;;;;;3.03;2.10;;;;;;;31.42;37.19;98992.97;5044518;27;102786;-62
2022/06/12 11:52:42;;;;;;;3.00;2.00;;;;;;;31.35;37.72;98998.56;5028694;27;102786;-70
2022/06/12 11:55:23;;;;;;;3.30;2.10;;;;;;;32.37;36.21;98983.31;5022700;27;103240;-62
2022/06/12 11:58:00;;;;;;;3.90;1.75;;;;;;;33.49;33.97;98981.44;5023596;27;103196;-70
2022/06/12 12:00:39;;;;;;;2.40;1.70;;;;;;;34.47;34.13;98975.09;5027059;27;102743;-71
2022/06/12 12:03:24;;;;;;;2.33;2.00;;;;;;;33.92;34.29;98977.16;5049472;27;104628;-70
2022/06/12 12:06:01;;;;;;;2.80;2.05;;;;;;;33.79;33.94;98968.25;5023373;27;103165;-63
2022/06/12 12:08:49;;;;;;;2.73;2.20;;;;;;;34.37;34.05;98969.50;5028012;27;103196;-63